Time;durP1;ratioP1;P1;durP2;ratioP2;P2;SDS_P1;SDS_P2;PMS_P1;PMS_P2;Temp;Humidity;BMP_temperature;BMP_pressure;BME280_temperature;BME280_humidity;BME280_pressure;Samples;Min_cycle;Max_cycle;Signal;HPM_P1;HPM_P2
2022/12/30 04:02:03;;;;;;;;;;;5.70;99.90;;;;;;5494165;22;19976;-67
2022/12/30 04:04:30;;;;;;;;;;;5.70;99.90;;;;;;5012665;28;19936;-68
2022/12/30 04:06:57;;;;;;;;;;;5.60;99.90;;;;;;5008685;28;19926;-69
2022/12/30 04:09:23;;;;;;;;;;;5.50;99.90;;;;;;5005547;28;19972;-68
2022/12/30 04:11:50;;;;;;;;;;;5.40;99.90;;;;;;5002832;28;20049;-67
2022/12/30 04:14:17;;;;;;;;;;;5.40;99.90;;;;;;5012273;28;19926;-68
2022/12/30 04:16:44;;;;;;;;;;;5.30;99.90;;;;;;5029782;28;19926;-68
2022/12/30 04:19:12;;;;;;;;;;;5.20;99.90;;;;;;5028784;28;20419;-68
2022/12/30 04:21:38;;;;;;;;;;;5.20;99.90;;;;;;5013037;28;20007;-68
2022/12/30 04:24:06;;;;;;;;;;;5.20;99.90;;;;;;5008463;28;19929;-68
2022/12/30 04:26:32;;;;;;;;;;;5.10;99.90;;;;;;5013336;28;20192;-67
2022/12/30 04:28:59;;;;;;;;;;;5.10;99.90;;;;;;5011463;28;20381;-68
2022/12/30 04:31:26;;;;;;;;;;;5.10;99.90;;;;;;5010513;28;20025;-67
2022/12/30 04:33:53;;;;;;;;;;;5.00;99.90;;;;;;5024872;28;20029;-68
2022/12/30 04:36:22;;;;;;;;;;;5.00;99.90;;;;;;5017289;28;20388;-68
2022/12/30 04:38:48;;;;;;;;;;;5.00;99.90;;;;;;5018078;28;19929;-66
2022/12/30 04:41:17;;;;;;;;;;;5.00;99.90;;;;;;5010974;28;19969;-68
2022/12/30 04:43:44;;;;;;;;;;;5.00;99.90;;;;;;5014288;28;19940;-68
2022/12/30 04:46:10;;;;;;;;;;;5.00;99.90;;;;;;5009857;28;20372;-69
2022/12/30 04:48:37;;;;;;;;;;;4.90;99.90;;;;;;5015029;28;19991;-68
2022/12/30 04:51:04;;;;;;;;;;;4.90;99.90;;;;;;5016614;28;20033;-69
2022/12/30 04:53:32;;;;;;;;;;;4.90;99.90;;;;;;5012257;28;19988;-68
2022/12/30 04:55:59;;;;;;;;;;;4.90;99.90;;;;;;5008161;28;20376;-68
2022/12/30 04:58:26;;;;;;;;;;;4.90;99.90;;;;;;5009753;28;19957;-68
2022/12/30 05:00:53;;;;;;;;;;;4.90;99.90;;;;;;5024587;28;20440;-68
2022/12/30 05:03:20;;;;;;;;;;;4.90;99.90;;;;;;5008099;28;19964;-68
2022/12/30 05:05:47;;;;;;;;;;;4.90;99.90;;;;;;5009842;28;19997;-67
2022/12/30 05:08:13;;;;;;;;;;;4.90;99.90;;;;;;5012062;28;19926;-67
2022/12/30 05:10:41;;;;;;;;;;;4.90;99.90;;;;;;5011371;28;19965;-68
2022/12/30 05:13:08;;;;;;;;;;;4.80;99.90;;;;;;5008549;28;19975;-69
2022/12/30 05:15:34;;;;;;;;;;;4.80;99.90;;;;;;5011414;28;20012;-68
2022/12/30 05:18:01;;;;;;;;;;;4.90;99.90;;;;;;5014480;28;19925;-69
2022/12/30 05:20:28;;;;;;;;;;;4.90;99.90;;;;;;5011132;28;19925;-68
2022/12/30 05:22:55;;;;;;;;;;;4.80;99.90;;;;;;5012599;28;19972;-69
2022/12/30 05:28:07;;;;;;;;;;;4.90;99.90;;;;;;5028612;28;20012;-68
2022/12/30 05:30:34;;;;;;;;;;;4.90;99.90;;;;;;5012550;28;20343;-68
2022/12/30 05:33:01;;;;;;;;;;;4.90;99.90;;;;;;5014965;28;19926;-68
2022/12/30 05:35:27;;;;;;;;;;;4.80;99.90;;;;;;5009647;28;19925;-68
2022/12/30 05:37:54;;;;;;;;;;;4.80;99.90;;;;;;5010569;28;19958;-68
2022/12/30 05:40:21;;;;;;;;;;;4.80;99.90;;;;;;5027495;28;19932;-68
2022/12/30 05:42:48;;;;;;;;;;;4.70;99.90;;;;;;5030949;28;19932;-68
2022/12/30 05:45:16;;;;;;;;;;;4.70;99.90;;;;;;5006031;28;19933;-68
2022/12/30 05:47:43;;;;;;;;;;;4.70;99.90;;;;;;5030056;28;20281;-67
2022/12/30 05:50:09;;;;;;;;;;;4.60;99.90;;;;;;5013761;28;19968;-69
2022/12/30 05:52:36;;;;;;;;;;;4.60;99.90;;;;;;5012566;28;19929;-69
2022/12/30 05:55:03;;;;;;;;;;;4.60;99.90;;;;;;5013146;28;19926;-71
2022/12/30 05:57:30;;;;;;;;;;;4.70;99.90;;;;;;5004382;28;19929;-70
2022/12/30 05:59:56;;;;;;;;;;;4.80;99.90;;;;;;5010931;28;19926;-70
2022/12/30 06:02:24;;;;;;;;;;;4.80;99.90;;;;;;5003393;28;19932;-68
2022/12/30 06:04:51;;;;;;;;;;;4.70;99.90;;;;;;5013011;28;19926;-70
2022/12/30 06:07:18;;;;;;;;;;;4.70;99.90;;;;;;5015408;28;19933;-69
2022/12/30 06:09:45;;;;;;;;;;;4.70;99.90;;;;;;5026783;28;20437;-69
2022/12/30 06:12:12;;;;;;;;;;;4.70;99.90;;;;;;5030343;28;19925;-71
2022/12/30 06:14:39;;;;;;;;;;;4.70;99.90;;;;;;5005368;28;19971;-69
2022/12/30 06:17:06;;;;;;;;;;;4.70;99.90;;;;;;5009411;28;19932;-69
2022/12/30 06:19:34;;;;;;;;;;;4.70;99.90;;;;;;5009987;28;19925;-69
2022/12/30 06:22:01;;;;;;;;;;;4.80;99.90;;;;;;5006815;28;19929;-69
2022/12/30 06:24:27;;;;;;;;;;;4.80;99.90;;;;;;5015090;28;19983;-70
2022/12/30 06:26:54;;;;;;;;;;;4.90;99.90;;;;;;5004107;28;19926;-69
2022/12/30 06:29:21;;;;;;;;;;;5.10;99.90;;;;;;5012625;28;19925;-69
2022/12/30 06:31:48;;;;;;;;;;;5.20;99.90;;;;;;5006541;28;19925;-69
2022/12/30 06:34:14;;;;;;;;;;;5.30;99.90;;;;;;5008691;28;19926;-69
2022/12/30 06:36:42;;;;;;;;;;;5.50;99.90;;;;;;5012988;28;19926;-70
2022/12/30 06:39:09;;;;;;;;;;;5.60;99.90;;;;;;5016152;28;19929;-69
2022/12/30 06:41:36;;;;;;;;;;;5.60;99.90;;;;;;5005575;28;19948;-69
2022/12/30 06:44:03;;;;;;;;;;;5.60;99.90;;;;;;5028174;28;19925;-69
2022/12/30 06:46:30;;;;;;;;;;;5.70;99.90;;;;;;5013166;28;19930;-69
2022/12/30 06:48:56;;;;;;;;;;;5.70;99.90;;;;;;5006092;28;19925;-69
2022/12/30 06:51:23;;;;;;;;;;;5.70;99.90;;;;;;5027259;28;20347;-69
2022/12/30 06:53:51;;;;;;;;;;;5.80;99.90;;;;;;5009350;28;19937;-69
2022/12/30 06:56:18;;;;;;;;;;;5.80;99.90;;;;;;5026955;28;19925;-69
2022/12/30 06:58:45;;;;;;;;;;;5.90;99.90;;;;;;5006169;28;20396;-69
2022/12/30 07:01:12;;;;;;;;;;;5.90;99.90;;;;;;5027476;28;19932;-69
2022/12/30 07:03:39;;;;;;;;;;;5.90;99.90;;;;;;5012228;28;19924;-69
2022/12/30 07:06:06;;;;;;;;;;;5.90;99.90;;;;;;5031283;28;20303;-69
2022/12/30 07:08:33;;;;;;;;;;;5.90;99.90;;;;;;5009146;28;19926;-70
2022/12/30 07:11:01;;;;;;;;;;;5.90;99.90;;;;;;5010221;28;19980;-69
2022/12/30 07:13:28;;;;;;;;;;;5.90;99.90;;;;;;5004952;28;19926;-69
2022/12/30 07:15:55;;;;;;;;;;;6.00;99.90;;;;;;5029159;28;19997;-69
2022/12/30 07:18:22;;;;;;;;;;;6.00;99.90;;;;;;5003311;28;19926;-69
2022/12/30 07:20:48;;;;;;;;;;;6.00;99.90;;;;;;5009488;28;19925;-69
2022/12/30 07:23:15;;;;;;;;;;;6.20;99.90;;;;;;5026522;28;20355;-69
2022/12/30 07:25:45;;;;;;;;;;;6.20;99.90;;;;;;5028816;28;19925;-71
2022/12/30 07:28:13;;;;;;;;;;;6.30;99.90;;;;;;5026108;28;19925;-67
2022/12/30 07:30:41;;;;;;;;;;;6.40;99.90;;;;;;5009546;28;19980;-69
2022/12/30 07:33:08;;;;;;;;;;;6.40;99.90;;;;;;5008077;28;19945;-70
2022/12/30 07:35:35;;;;;;;;;;;6.40;99.90;;;;;;5008944;28;19929;-69
2022/12/30 07:38:02;;;;;;;;;;;6.30;99.90;;;;;;5011615;28;19929;-70
2022/12/30 07:40:28;;;;;;;;;;;6.40;99.90;;;;;;5025820;28;19941;-69
2022/12/30 07:42:55;;;;;;;;;;;6.40;99.90;;;;;;5009036;28;19931;-69
2022/12/30 07:45:23;;;;;;;;;;;6.40;99.90;;;;;;5026087;28;19926;-70
2022/12/30 07:47:50;;;;;;;;;;;6.50;99.90;;;;;;5029042;28;19936;-68
2022/12/30 07:50:17;;;;;;;;;;;6.50;99.90;;;;;;5012689;28;19925;-68
2022/12/30 07:52:44;;;;;;;;;;;6.60;99.90;;;;;;5029783;28;19941;-68
2022/12/30 07:55:11;;;;;;;;;;;6.60;99.90;;;;;;5015289;28;20413;-68
2022/12/30 07:57:38;;;;;;;;;;;6.70;99.90;;;;;;5009173;28;19926;-68
2022/12/30 08:00:05;;;;;;;;;;;6.80;99.90;;;;;;5007180;28;20466;-68
2022/12/30 08:02:40;;;;;;;;;;;6.90;99.90;;;;;;5013958;28;19957;-68
2022/12/30 08:05:08;;;;;;;;;;;7.10;99.90;;;;;;5011423;28;20300;-68
2022/12/30 08:07:34;;;;;;;;;;;7.20;99.90;;;;;;5013519;28;19980;-68
2022/12/30 08:10:01;;;;;;;;;;;7.20;99.90;;;;;;5028927;28;19929;-68
2022/12/30 08:12:28;;;;;;;;;;;7.30;99.90;;;;;;5008564;28;20324;-68
2022/12/30 08:14:54;;;;;;;;;;;7.30;99.90;;;;;;5029592;28;19929;-68
2022/12/30 08:17:21;;;;;;;;;;;7.40;99.90;;;;;;5014065;28;19937;-69
2022/12/30 08:19:49;;;;;;;;;;;7.50;99.90;;;;;;5014742;28;19929;-69
2022/12/30 08:22:16;;;;;;;;;;;7.50;99.90;;;;;;5009843;28;19941;-69
2022/12/30 08:24:43;;;;;;;;;;;7.60;99.90;;;;;;5013072;28;19953;-69
2022/12/30 08:27:10;;;;;;;;;;;7.60;99.90;;;;;;5012864;28;19925;-69
2022/12/30 08:29:36;;;;;;;;;;;7.60;99.90;;;;;;5012338;28;19925;-69
2022/12/30 08:32:03;;;;;;;;;;;7.60;99.90;;;;;;5013109;28;19932;-69
2022/12/30 08:34:30;;;;;;;;;;;7.70;99.90;;;;;;5012438;28;20419;-69
2022/12/30 08:36:58;;;;;;;;;;;7.70;99.90;;;;;;5012116;28;19930;-68
2022/12/30 08:39:25;;;;;;;;;;;7.70;99.90;;;;;;5007664;28;19972;-70
2022/12/30 08:41:52;;;;;;;;;;;7.70;99.90;;;;;;5017668;28;19933;-68
2022/12/30 08:44:18;;;;;;;;;;;7.70;99.90;;;;;;5009628;28;19932;-70
2022/12/30 08:46:45;;;;;;;;;;;7.80;99.90;;;;;;5012980;28;19929;-69
2022/12/30 08:49:13;;;;;;;;;;;7.80;99.90;;;;;;5032909;28;19937;-69
2022/12/30 08:51:40;;;;;;;;;;;7.90;99.90;;;;;;5010327;28;19933;-69
2022/12/30 08:54:08;;;;;;;;;;;7.90;99.90;;;;;;5029224;28;19926;-68
2022/12/30 08:56:36;;;;;;;;;;;7.90;99.90;;;;;;5012648;28;19980;-68
2022/12/30 08:59:03;;;;;;;;;;;7.90;99.90;;;;;;5030334;28;19933;-69
2022/12/30 09:01:32;;;;;;;;;;;7.90;99.90;;;;;;5008651;28;19980;-68
2022/12/30 09:04:00;;;;;;;;;;;7.90;99.90;;;;;;5007070;28;20434;-68
2022/12/30 09:06:28;;;;;;;;;;;7.90;99.90;;;;;;5028777;28;20296;-69
2022/12/30 09:08:56;;;;;;;;;;;7.90;99.90;;;;;;5026615;28;19930;-70
2022/12/30 09:11:25;;;;;;;;;;;8.00;99.90;;;;;;5008227;28;19988;-69
2022/12/30 09:13:52;;;;;;;;;;;8.00;99.90;;;;;;5012081;28;19929;-69
2022/12/30 09:16:21;;;;;;;;;;;8.10;99.90;;;;;;5008515;28;19975;-69
2022/12/30 09:18:47;;;;;;;;;;;8.10;99.90;;;;;;5010403;28;19938;-69
2022/12/30 09:21:14;;;;;;;;;;;8.10;99.90;;;;;;5011770;28;19932;-68
2022/12/30 09:23:41;;;;;;;;;;;8.20;99.90;;;;;;5011807;28;19929;-70
2022/12/30 09:26:08;;;;;;;;;;;8.20;99.90;;;;;;5013159;28;19932;-69
2022/12/30 09:28:36;;;;;;;;;;;8.20;99.90;;;;;;5006689;28;20028;-70
2022/12/30 09:31:03;;;;;;;;;;;8.20;99.90;;;;;;5011329;28;19926;-69
2022/12/30 09:33:30;;;;;;;;;;;8.30;99.90;;;;;;5011705;28;19932;-69
2022/12/30 09:35:56;;;;;;;;;;;8.30;99.90;;;;;;5007141;28;19925;-68
2022/12/30 09:38:23;;;;;;;;;;;8.40;99.90;;;;;;5012877;28;19926;-69
2022/12/30 09:40:55;;;;;;;;;;;8.40;99.90;;;;;;5007275;28;19925;-69
2022/12/30 09:43:25;;;;;;;;;;;8.50;99.90;;;;;;5009918;28;19929;-69
2022/12/30 09:45:57;;;;;;;;;;;8.50;99.90;;;;;;5008022;28;19932;-69
2022/12/30 09:48:25;;;;;;;;;;;8.50;99.90;;;;;;5008865;28;19936;-69
2022/12/30 09:50:54;;;;;;;;;;;8.50;99.90;;;;;;5011413;28;19933;-69
2022/12/30 09:53:25;;;;;;;;;;;8.60;99.90;;;;;;5005149;28;19929;-70
2022/12/30 09:55:54;;;;;;;;;;;8.70;99.90;;;;;;5011464;28;19929;-69
2022/12/30 09:58:24;;;;;;;;;;;8.80;99.90;;;;;;5004879;28;20003;-68
2022/12/30 10:00:51;;;;;;;;;;;8.80;99.90;;;;;;5011409;28;19949;-69
2022/12/30 10:03:21;;;;;;;;;;;8.90;99.90;;;;;;5015041;28;19926;-69
2022/12/30 10:05:54;;;;;;;;;;;9.00;99.90;;;;;;5012465;28;19930;-66
2022/12/30 10:08:26;;;;;;;;;;;9.10;99.90;;;;;;5006348;28;19933;-67
2022/12/30 10:10:55;;;;;;;;;;;9.10;99.90;;;;;;5023792;28;19932;-69
2022/12/30 10:13:26;;;;;;;;;;;9.20;99.90;;;;;;5023560;28;19933;-69
2022/12/30 10:15:56;;;;;;;;;;;9.30;99.90;;;;;;5030513;28;19925;-68
2022/12/30 10:18:29;;;;;;;;;;;9.40;99.90;;;;;;5023651;28;19929;-70
2022/12/30 10:21:03;;;;;;;;;;;9.30;99.90;;;;;;5010727;28;20335;-69
2022/12/30 10:23:35;;;;;;;;;;;9.40;99.90;;;;;;5010251;28;19933;-69
2022/12/30 10:26:06;;;;;;;;;;;9.30;99.90;;;;;;5010689;28;19925;-70
2022/12/30 10:28:36;;;;;;;;;;;9.40;99.90;;;;;;5011824;28;19980;-70
2022/12/30 10:31:07;;;;;;;;;;;9.30;99.90;;;;;;5006519;28;19926;-69
2022/12/30 10:33:36;;;;;;;;;;;9.30;99.90;;;;;;5008875;28;20319;-70
2022/12/30 10:36:06;;;;;;;;;;;9.40;99.90;;;;;;5012981;28;19929;-69
2022/12/30 10:38:33;;;;;;;;;;;9.40;99.90;;;;;;5009849;28;19929;-69
2022/12/30 10:41:05;;;;;;;;;;;9.30;99.90;;;;;;5009579;28;19925;-70
2022/12/30 10:43:41;;;;;;;;;;;9.30;99.90;;;;;;5003791;28;19929;-69
2022/12/30 10:46:15;;;;;;;;;;;9.40;99.90;;;;;;5010316;28;19926;-69
2022/12/30 10:48:52;;;;;;;;;;;9.40;99.90;;;;;;5012566;28;19931;-70
2022/12/30 10:51:20;;;;;;;;;;;9.40;99.90;;;;;;5026914;28;19925;-69
2022/12/30 10:53:48;;;;;;;;;;;9.40;99.90;;;;;;5012928;28;19929;-69
2022/12/30 10:56:17;;;;;;;;;;;9.40;99.90;;;;;;5009114;28;19940;-70
2022/12/30 10:58:46;;;;;;;;;;;9.40;99.90;;;;;;5006414;28;19930;-69
2022/12/30 11:01:15;;;;;;;;;;;9.40;99.90;;;;;;5012142;28;19926;-70
2022/12/30 11:03:44;;;;;;;;;;;9.40;99.90;;;;;;5009734;28;19930;-69
2022/12/30 11:06:20;;;;;;;;;;;9.40;99.90;;;;;;5008058;28;19925;-69
2022/12/30 11:08:47;;;;;;;;;;;9.40;99.90;;;;;;5001524;28;20301;-68
2022/12/30 11:11:14;;;;;;;;;;;9.40;99.90;;;;;;5004309;28;19941;-70
2022/12/30 11:16:26;;;;;;;;;;;9.50;99.90;;;;;;5005372;28;19926;-69
2022/12/30 11:18:53;;;;;;;;;;;9.50;99.90;;;;;;5025997;28;19929;-69
2022/12/30 11:21:25;;;;;;;;;;;9.50;99.90;;;;;;5030817;28;19929;-69
2022/12/30 11:23:53;;;;;;;;;;;9.50;99.90;;;;;;5023000;28;20011;-69
2022/12/30 11:26:22;;;;;;;;;;;9.50;99.90;;;;;;5008699;28;19929;-68
2022/12/30 11:28:50;;;;;;;;;;;9.50;99.90;;;;;;5030221;28;19925;-67
2022/12/30 11:31:17;;;;;;;;;;;9.50;99.90;;;;;;5011155;28;19929;-66
2022/12/30 11:33:48;;;;;;;;;;;9.60;99.90;;;;;;5026863;28;20132;-69
2022/12/30 11:36:19;;;;;;;;;;;9.60;99.90;;;;;;5018114;28;19934;-69
2022/12/30 11:38:48;;;;;;;;;;;9.60;99.90;;;;;;5016603;28;19971;-66
2022/12/30 11:41:23;;;;;;;;;;;9.60;99.90;;;;;;5010765;28;19925;-69
2022/12/30 11:43:50;;;;;;;;;;;9.60;99.90;;;;;;5015306;28;19925;-68
2022/12/30 11:46:19;;;;;;;;;;;9.70;99.90;;;;;;5013144;28;19976;-70
2022/12/30 11:48:47;;;;;;;;;;;9.70;99.90;;;;;;5009157;28;19925;-69
2022/12/30 11:51:18;;;;;;;;;;;9.70;99.90;;;;;;5010399;28;19929;-68
2022/12/30 11:53:45;;;;;;;;;;;9.70;99.90;;;;;;5015655;28;19975;-69
2022/12/30 11:56:13;;;;;;;;;;;9.80;99.90;;;;;;5012196;28;19932;-69
2022/12/30 11:58:42;;;;;;;;;;;9.80;99.90;;;;;;5016182;28;19929;-68
2022/12/30 12:01:10;;;;;;;;;;;9.80;99.90;;;;;;5019877;28;20438;-68
2022/12/30 12:03:46;;;;;;;;;;;9.80;99.90;;;;;;5012749;28;19948;-69
2022/12/30 12:06:13;;;;;;;;;;;9.80;99.90;;;;;;5011413;28;20012;-68
2022/12/30 12:08:44;;;;;;;;;;;9.90;99.90;;;;;;5026650;28;19926;-69
2022/12/30 12:11:13;;;;;;;;;;;9.90;99.90;;;;;;5014848;28;19925;-69
2022/12/30 12:13:47;;;;;;;;;;;10.00;99.90;;;;;;5011168;28;19929;-68
2022/12/30 12:16:16;;;;;;;;;;;10.00;99.90;;;;;;5016047;28;20357;-68
2022/12/30 12:18:44;;;;;;;;;;;10.00;99.90;;;;;;5014920;28;19965;-69
2022/12/30 12:21:15;;;;;;;;;;;10.10;99.90;;;;;;5016198;28;19929;-69
2022/12/30 12:23:47;;;;;;;;;;;10.10;99.90;;;;;;5017506;28;19930;-69
2022/12/30 12:26:17;;;;;;;;;;;10.10;99.90;;;;;;5009513;28;19954;-69
2022/12/30 12:28:47;;;;;;;;;;;10.10;99.90;;;;;;5009783;28;19937;-70
2022/12/30 12:31:22;;;;;;;;;;;10.10;99.90;;;;;;5027399;28;19937;-69
2022/12/30 12:33:53;;;;;;;;;;;10.10;99.90;;;;;;5008392;28;19925;-68
2022/12/30 12:36:26;;;;;;;;;;;10.00;99.90;;;;;;5038223;28;19926;-68
2022/12/30 12:38:55;;;;;;;;;;;10.10;99.90;;;;;;5034578;28;19932;-68
2022/12/30 12:41:28;;;;;;;;;;;10.20;99.90;;;;;;5013000;28;20348;-68
2022/12/30 12:44:05;;;;;;;;;;;10.30;99.90;;;;;;5014153;28;20265;-69
2022/12/30 12:46:42;;;;;;;;;;;10.30;99.90;;;;;;5032405;28;20427;-68
2022/12/30 12:49:19;;;;;;;;;;;10.30;99.90;;;;;;5020400;28;19929;-69
2022/12/30 12:51:52;;;;;;;;;;;10.40;99.90;;;;;;5015208;28;19934;-69
2022/12/30 12:54:30;;;;;;;;;;;10.40;99.90;;;;;;5013940;28;19926;-69
2022/12/30 12:57:04;;;;;;;;;;;10.40;99.90;;;;;;5010066;28;19926;-69
2022/12/30 12:59:42;;;;;;;;;;;10.30;99.90;;;;;;5029332;28;19925;-68
2022/12/30 13:02:15;;;;;;;;;;;10.40;99.90;;;;;;5013457;28;20392;-69
2022/12/30 13:04:47;;;;;;;;;;;10.30;99.90;;;;;;5034908;28;19933;-69
2022/12/30 13:07:21;;;;;;;;;;;10.30;99.90;;;;;;5015056;28;19929;-68
2022/12/30 13:09:59;;;;;;;;;;;10.30;99.90;;;;;;5016481;28;19926;-69
2022/12/30 13:12:29;;;;;;;;;;;10.30;99.90;;;;;;5019608;28;20339;-69
2022/12/30 13:15:00;;;;;;;;;;;10.20;99.90;;;;;;5013310;28;19940;-67
2022/12/30 13:17:29;;;;;;;;;;;10.20;99.90;;;;;;5022962;28;19925;-68
2022/12/30 13:19:59;;;;;;;;;;;10.20;99.90;;;;;;5015477;28;19925;-68
2022/12/30 13:22:29;;;;;;;;;;;10.10;99.90;;;;;;5020740;28;19932;-68
2022/12/30 13:24:56;;;;;;;;;;;10.10;99.90;;;;;;5016237;28;20423;-68
2022/12/30 13:27:25;;;;;;;;;;;10.10;99.90;;;;;;5018912;28;19925;-69
2022/12/30 13:29:53;;;;;;;;;;;10.10;99.90;;;;;;5016788;28;19925;-69
2022/12/30 13:32:25;;;;;;;;;;;10.00;99.90;;;;;;5013476;28;19925;-68
2022/12/30 13:34:57;;;;;;;;;;;9.90;99.90;;;;;;5024392;28;19944;-69
2022/12/30 13:37:26;;;;;;;;;;;9.90;99.90;;;;;;5035050;28;19929;-69
2022/12/30 13:39:55;;;;;;;;;;;9.80;99.90;;;;;;5011093;28;19934;-69
2022/12/30 13:42:40;;;;;;;;;;;9.70;99.90;;;;;;5008792;28;19932;-69
2022/12/30 13:45:12;;;;;;;;;;;9.60;99.90;;;;;;5022266;28;19932;-69
2022/12/30 13:47:41;;;;;;;;;;;9.60;99.90;;;;;;5017334;28;19926;-69
2022/12/30 13:50:16;;;;;;;;;;;9.50;99.90;;;;;;5011724;28;20347;-66
2022/12/30 13:52:45;;;;;;;;;;;9.50;99.90;;;;;;5029331;28;19926;-69
2022/12/30 13:55:16;;;;;;;;;;;9.50;99.90;;;;;;5029258;28;19925;-69
2022/12/30 13:57:44;;;;;;;;;;;9.50;99.90;;;;;;5012678;28;19925;-69
2022/12/30 14:00:23;;;;;;;;;;;9.40;99.90;;;;;;5013728;28;19932;-68
2022/12/30 14:02:58;;;;;;;;;;;9.40;99.90;;;;;;5018501;28;20013;-67
2022/12/30 14:05:46;;;;;;;;;;;9.40;99.90;;;;;;5012870;28;19936;-69
2022/12/30 14:08:20;;;;;;;;;;;9.50;99.90;;;;;;5016133;28;19925;-68
2022/12/30 14:10:53;;;;;;;;;;;9.40;99.90;;;;;;5017254;28;19925;-68
2022/12/30 14:13:33;;;;;;;;;;;9.40;99.90;;;;;;5020219;28;20045;-68
2022/12/30 14:16:01;;;;;;;;;;;9.50;99.90;;;;;;5014881;28;20288;-68
2022/12/30 14:18:36;;;;;;;;;;;9.50;99.90;;;;;;5011548;28;19929;-69
2022/12/30 14:21:04;;;;;;;;;;;9.50;99.90;;;;;;5034970;28;19925;-67
2022/12/30 14:23:39;;;;;;;;;;;9.50;99.90;;;;;;5012277;28;19925;-69
2022/12/30 14:26:24;;;;;;;;;;;9.50;99.90;;;;;;5028333;28;20311;-69
2022/12/30 14:28:52;;;;;;;;;;;9.50;99.90;;;;;;5017364;28;19925;-68
2022/12/30 14:31:23;;;;;;;;;;;9.50;99.90;;;;;;5018134;28;19925;-69
2022/12/30 14:33:51;;;;;;;;;;;9.60;99.90;;;;;;5016092;28;19932;-69
2022/12/30 14:36:19;;;;;;;;;;;9.60;99.90;;;;;;5038143;28;19925;-69
2022/12/30 14:38:47;;;;;;;;;;;9.60;99.90;;;;;;5011187;28;19929;-69
2022/12/30 14:41:15;;;;;;;;;;;9.60;99.90;;;;;;5027812;28;20328;-68
2022/12/30 14:43:50;;;;;;;;;;;9.60;99.90;;;;;;5011787;28;19926;-69
2022/12/30 14:46:36;;;;;;;;;;;9.70;99.90;;;;;;5014048;28;19991;-69
2022/12/30 14:49:11;;;;;;;;;;;9.70;99.90;;;;;;5008557;28;19929;-69
2022/12/30 14:51:39;;;;;;;;;;;9.80;99.90;;;;;;5014666;28;19932;-69
2022/12/30 14:54:06;;;;;;;;;;;9.90;99.90;;;;;;5013483;28;19932;-70
2022/12/30 14:56:33;;;;;;;;;;;10.00;99.90;;;;;;5028031;28;19925;-67
2022/12/30 14:59:00;;;;;;;;;;;10.10;99.90;;;;;;5027178;28;19925;-69
2022/12/30 15:01:26;;;;;;;;;;;10.20;99.90;;;;;;5019029;28;19929;-69
2022/12/30 15:04:14;;;;;;;;;;;10.30;99.90;;;;;;5015509;28;19925;-69
2022/12/30 15:06:42;;;;;;;;;;;10.40;99.90;;;;;;5012158;28;19945;-69
2022/12/30 15:09:09;;;;;;;;;;;10.60;99.90;;;;;;5015789;28;19944;-68
2022/12/30 15:11:36;;;;;;;;;;;10.70;99.90;;;;;;5017315;28;19932;-69
2022/12/30 15:14:03;;;;;;;;;;;10.70;99.90;;;;;;5011438;28;19965;-69
2022/12/30 15:16:31;;;;;;;;;;;10.80;99.90;;;;;;5032993;28;20021;-69
2022/12/30 15:18:59;;;;;;;;;;;10.80;99.90;;;;;;5012506;28;20016;-68
2022/12/30 15:21:28;;;;;;;;;;;10.80;99.90;;;;;;5015891;28;19932;-68
2022/12/30 15:24:14;;;;;;;;;;;11.00;99.90;;;;;;5019204;28;19925;-69
2022/12/30 15:26:47;;;;;;;;;;;11.00;99.90;;;;;;5014551;28;19965;-69
2022/12/30 15:29:16;;;;;;;;;;;11.10;99.90;;;;;;5010300;28;19933;-69
2022/12/30 15:31:48;;;;;;;;;;;11.10;99.90;;;;;;5027574;28;19933;-69
2022/12/30 15:34:17;;;;;;;;;;;11.10;99.90;;;;;;5010677;28;19972;-69
2022/12/30 15:36:46;;;;;;;;;;;11.20;99.90;;;;;;5011129;28;20348;-69
2022/12/30 15:39:14;;;;;;;;;;;11.20;99.90;;;;;;5026823;28;19952;-69
2022/12/30 15:41:41;;;;;;;;;;;11.20;99.90;;;;;;5014653;28;19925;-68
2022/12/30 15:44:13;;;;;;;;;;;11.10;99.90;;;;;;5012631;28;19996;-69
2022/12/30 15:46:46;;;;;;;;;;;11.10;99.90;;;;;;5027200;28;19926;-69
2022/12/30 15:49:14;;;;;;;;;;;10.90;99.90;;;;;;5010092;28;19926;-69
2022/12/30 15:51:42;;;;;;;;;;;10.80;99.90;;;;;;5010915;28;19984;-68
2022/12/30 15:54:18;;;;;;;;;;;10.70;99.90;;;;;;5010980;28;20044;-68
2022/12/30 15:56:46;;;;;;;;;;;10.70;99.90;;;;;;5010824;28;19926;-68
2022/12/30 15:59:17;;;;;;;;;;;10.60;99.90;;;;;;5009666;28;19933;-68
2022/12/30 16:01:44;;;;;;;;;;;10.60;99.90;;;;;;5035180;28;19929;-69
2022/12/30 16:04:12;;;;;;;;;;;10.70;99.90;;;;;;5013430;28;19933;-69
2022/12/30 16:06:39;;;;;;;;;;;10.80;99.90;;;;;;5034502;28;19926;-69
2022/12/30 16:09:21;;;;;;;;;;;10.80;99.90;;;;;;5014394;28;19952;-68
2022/12/30 16:11:52;;;;;;;;;;;10.80;99.90;;;;;;5013699;28;19926;-66
2022/12/30 16:14:27;;;;;;;;;;;10.80;99.90;;;;;;5030888;28;19925;-69
2022/12/30 16:16:54;;;;;;;;;;;10.90;99.90;;;;;;5014504;28;19926;-69
2022/12/30 16:19:21;;;;;;;;;;;10.90;99.90;;;;;;5013322;28;19925;-69
2022/12/30 16:21:50;;;;;;;;;;;11.00;99.90;;;;;;5014153;28;19926;-67
2022/12/30 16:24:26;;;;;;;;;;;11.10;99.90;;;;;;5037682;28;19929;-69
2022/12/30 16:26:56;;;;;;;;;;;11.40;99.90;;;;;;5031226;28;19926;-69
2022/12/30 16:29:26;;;;;;;;;;;11.50;99.90;;;;;;5012371;28;19925;-68
2022/12/30 16:31:53;;;;;;;;;;;11.50;99.90;;;;;;5030991;28;19933;-68
2022/12/30 16:34:21;;;;;;;;;;;11.70;99.90;;;;;;5030295;28;19929;-69
2022/12/30 16:36:48;;;;;;;;;;;11.70;99.90;;;;;;5032603;28;19925;-67
2022/12/30 16:39:15;;;;;;;;;;;11.80;99.90;;;;;;5013262;28;19933;-69
2022/12/30 16:41:42;;;;;;;;;;;11.90;99.90;;;;;;5016316;28;19929;-69
2022/12/30 16:44:11;;;;;;;;;;;12.00;99.90;;;;;;5014084;28;19926;-69
2022/12/30 16:46:39;;;;;;;;;;;12.00;99.90;;;;;;5024885;28;19925;-69
2022/12/30 16:49:06;;;;;;;;;;;12.00;99.90;;;;;;5017148;28;20308;-68
2022/12/30 16:51:34;;;;;;;;;;;12.00;99.90;;;;;;5018372;28;19960;-69
2022/12/30 16:54:01;;;;;;;;;;;12.10;99.90;;;;;;5013551;28;19932;-68
2022/12/30 16:56:28;;;;;;;;;;;12.10;99.90;;;;;;5019397;28;19952;-69
2022/12/30 16:58:55;;;;;;;;;;;12.10;99.90;;;;;;5016532;28;20339;-68
2022/12/30 17:01:25;;;;;;;;;;;12.10;99.90;;;;;;5015347;28;19926;-69
2022/12/30 17:03:52;;;;;;;;;;;12.10;99.90;;;;;;5034113;28;19933;-69
2022/12/30 17:06:19;;;;;;;;;;;12.10;99.90;;;;;;5013664;28;19929;-69
2022/12/30 17:08:46;;;;;;;;;;;12.10;99.90;;;;;;5013380;28;19934;-69
2022/12/30 17:11:14;;;;;;;;;;;12.10;99.90;;;;;;5013754;28;19929;-69
2022/12/30 17:13:41;;;;;;;;;;;12.10;99.90;;;;;;5019888;28;20051;-69
2022/12/30 17:16:14;;;;;;;;;;;12.20;99.90;;;;;;5022531;28;19928;-69
2022/12/30 17:18:43;;;;;;;;;;;12.20;99.90;;;;;;5031750;28;19956;-69
2022/12/30 17:21:10;;;;;;;;;;;12.20;99.90;;;;;;5020568;28;19925;-69
2022/12/30 17:23:38;;;;;;;;;;;12.30;99.90;;;;;;5015799;28;19934;-69
2022/12/30 17:26:05;;;;;;;;;;;12.30;99.90;;;;;;5017279;28;19926;-69
2022/12/30 17:28:32;;;;;;;;;;;12.40;99.90;;;;;;5009935;28;19933;-69
2022/12/30 17:30:59;;;;;;;;;;;12.50;99.90;;;;;;5010147;28;19987;-69
2022/12/30 17:33:26;;;;;;;;;;;12.60;99.90;;;;;;5020747;28;19926;-68
2022/12/30 17:35:55;;;;;;;;;;;12.70;99.90;;;;;;5019543;28;20378;-69
2022/12/30 17:38:21;;;;;;;;;;;12.70;99.90;;;;;;5027994;28;19929;-69
2022/12/30 17:40:48;;;;;;;;;;;12.80;99.90;;;;;;5012379;28;19932;-67
2022/12/30 17:43:15;;;;;;;;;;;12.80;99.90;;;;;;5012683;28;19934;-69
2022/12/30 17:45:42;;;;;;;;;;;12.90;99.90;;;;;;5037084;28;19929;-68
2022/12/30 17:48:13;;;;;;;;;;;13.00;99.90;;;;;;5018067;28;19925;-69
2022/12/30 17:50:42;;;;;;;;;;;13.00;99.90;;;;;;5019076;28;20304;-68
2022/12/30 17:53:13;;;;;;;;;;;13.20;99.90;;;;;;5012528;28;20281;-69
2022/12/30 17:55:40;;;;;;;;;;;13.20;99.90;;;;;;5018411;28;19926;-69
2022/12/30 17:58:07;;;;;;;;;;;13.10;99.90;;;;;;5009717;28;20165;-69
2022/12/30 18:00:34;;;;;;;;;;;13.10;99.90;;;;;;5016756;28;20351;-69
2022/12/30 18:03:01;;;;;;;;;;;13.10;99.90;;;;;;5019416;28;19932;-69
2022/12/30 18:05:28;;;;;;;;;;;13.10;99.90;;;;;;5016438;28;19952;-69
2022/12/30 18:07:54;;;;;;;;;;;13.20;99.90;;;;;;5029593;28;19989;-69
2022/12/30 18:10:23;;;;;;;;;;;13.10;99.90;;;;;;5014952;28;19932;-69
2022/12/30 18:12:50;;;;;;;;;;;13.20;99.90;;;;;;5018185;28;19932;-68
2022/12/30 18:15:17;;;;;;;;;;;13.30;99.90;;;;;;5012118;28;19932;-69
2022/12/30 18:17:44;;;;;;;;;;;13.30;99.90;;;;;;5036574;28;19969;-69
2022/12/30 18:20:10;;;;;;;;;;;13.40;99.90;;;;;;5020243;28;19929;-69
2022/12/30 18:22:37;;;;;;;;;;;13.40;99.90;;;;;;5012241;28;19988;-69
2022/12/30 18:25:04;;;;;;;;;;;13.30;99.90;;;;;;5017806;28;19929;-68
2022/12/30 18:27:33;;;;;;;;;;;13.30;99.90;;;;;;5008613;28;19949;-69
2022/12/30 18:30:00;;;;;;;;;;;13.30;99.90;;;;;;5026764;28;19980;-69
2022/12/30 18:32:26;;;;;;;;;;;13.30;99.90;;;;;;5013425;28;19948;-69
2022/12/30 18:34:53;;;;;;;;;;;13.30;99.90;;;;;;5003664;28;19945;-69
2022/12/30 18:37:20;;;;;;;;;;;13.20;99.90;;;;;;5020390;28;19925;-69
2022/12/30 18:39:47;;;;;;;;;;;13.30;99.90;;;;;;5015256;28;19930;-69
2022/12/30 18:42:13;;;;;;;;;;;13.30;99.90;;;;;;5027985;28;19957;-70